Time;durP1;ratioP1;P1;durP2;ratioP2;P2;SDS_P1;SDS_P2;PMS_P1;PMS_P2;Temp;Humidity;BMP_temperature;BMP_pressure;BME280_temperature;BME280_humidity;BME280_pressure;Samples;Min_cycle;Max_cycle;Signal;HPM_P1;HPM_P2
2022/05/17 00:01:53;;;;;;;125.35;113.90;;;17.40;94.80;;;;;;4978146;28;20043;-75
2022/05/17 00:04:20;;;;;;;125.05;113.68;;;17.40;94.80;;;;;;4978135;28;20055;-75
2022/05/17 00:06:49;;;;;;;123.93;112.55;;;17.40;94.80;;;;;;4995587;28;20055;-75
2022/05/17 00:09:17;;;;;;;124.75;113.50;;;17.40;94.90;;;;;;4961614;28;20050;-75
2022/05/17 00:11:45;;;;;;;126.00;114.70;;;17.40;94.90;;;;;;4962081;28;20050;-75
2022/05/17 00:14:13;;;;;;;127.13;115.72;;;17.40;94.90;;;;;;4978448;28;20138;-75
2022/05/17 00:16:41;;;;;;;132.45;120.57;;;17.30;94.90;;;;;;4978131;28;20051;-75
2022/05/17 00:19:08;;;;;;;125.28;114.18;;;17.30;95.00;;;;;;4995010;28;20051;-75
2022/05/17 00:21:36;;;;;;;128.32;116.45;;;17.30;94.90;;;;;;4995513;28;20259;-76
2022/05/17 00:24:06;;;;;;;124.30;113.03;;;17.30;95.00;;;;;;4977719;28;20062;-75
2022/05/17 00:26:34;;;;;;;125.57;114.20;;;17.30;95.10;;;;;;4978125;28;20055;-75
2022/05/17 00:29:01;;;;;;;126.10;114.70;;;17.20;95.10;;;;;;4977256;28;20051;-75
2022/05/17 00:31:28;;;;;;;126.20;114.30;;;17.20;95.20;;;;;;4977997;28;20074;-76
2022/05/17 00:33:55;;;;;;;126.70;114.90;;;17.20;95.20;;;;;;4977991;28;20110;-76
2022/05/17 00:36:22;;;;;;;125.22;113.82;;;17.20;95.20;;;;;;4995362;28;20061;-76
2022/05/17 00:38:49;;;;;;;125.05;113.70;;;17.20;95.30;;;;;;4977541;28;20047;-75
2022/05/17 00:41:17;;;;;;;126.03;114.65;;;17.10;95.20;;;;;;4977577;28;20061;-75
2022/05/17 00:46:34;;;;;;;126.18;114.43;;;17.10;95.30;;;;;;4976663;28;20051;-75
2022/05/17 00:49:01;;;;;;;124.72;113.57;;;17.10;95.40;;;;;;4977363;28;20567;-75
2022/05/17 00:51:29;;;;;;;125.78;114.57;;;17.10;95.40;;;;;;4995117;28;20055;-75
2022/05/17 00:54:03;;;;;;;125.60;114.22;;;17.00;95.50;;;;;;4977483;28;20053;-75
2022/05/17 00:56:32;;;;;;;127.18;115.60;;;17.00;95.50;;;;;;4978071;28;20094;-76
2022/05/17 00:59:02;;;;;;;126.78;115.32;;;16.90;95.50;;;;;;4994707;28;20046;-75
2022/05/17 01:01:32;;;;;;;129.07;117.38;;;16.90;95.50;;;;;;4977371;28;20577;-75
2022/05/17 01:04:03;;;;;;;127.30;115.40;;;16.80;95.60;;;;;;4995086;28;20063;-75
2022/05/17 01:06:34;;;;;;;128.05;116.28;;;16.80;95.50;;;;;;4977471;28;20893;-75
2022/05/17 01:09:01;;;;;;;128.32;116.35;;;16.80;95.70;;;;;;4977338;28;20046;-75
2022/05/17 01:11:28;;;;;;;128.00;116.25;;;16.70;95.70;;;;;;4977411;28;20046;-75
2022/05/17 01:16:41;;;;;;;128.27;116.30;;;16.70;95.70;;;;;;4977783;28;20082;-75
2022/05/17 01:19:09;;;;;;;129.88;118.15;;;16.60;95.80;;;;;;4976773;28;20042;-75
2022/05/17 01:21:38;;;;;;;128.15;116.47;;;16.60;95.90;;;;;;4977165;28;20054;-75
2022/05/17 01:24:06;;;;;;;130.02;118.18;;;16.60;95.90;;;;;;4994490;28;20055;-76
2022/05/17 01:26:37;;;;;;;131.45;119.65;;;16.60;95.90;;;;;;4977520;28;20065;-76
2022/05/17 01:29:06;;;;;;;131.68;119.10;;;16.50;95.90;;;;;;4976754;28;20118;-75
2022/05/17 01:31:36;;;;;;;128.95;117.50;;;16.50;95.90;;;;;;4976893;28;20050;-75
2022/05/17 01:34:06;;;;;;;131.65;119.82;;;16.50;96.00;;;;;;4977195;28;20129;-75
2022/05/17 01:36:33;;;;;;;127.72;116.03;;;16.50;96.00;;;;;;4977260;28;20484;-75
2022/05/17 01:39:02;;;;;;;127.63;115.55;;;16.50;96.00;;;;;;4976691;28;20122;-75
2022/05/17 01:41:29;;;;;;;128.27;116.63;;;16.40;96.00;;;;;;4976886;28;20341;-75
2022/05/17 01:43:55;;;;;;;128.90;117.18;;;16.40;96.00;;;;;;4976741;28;20061;-76
2022/05/17 01:46:22;;;;;;;126.50;114.85;;;16.40;96.00;;;;;;4976963;28;20047;-76
2022/05/17 01:48:51;;;;;;;127.93;116.32;;;16.40;96.00;;;;;;4976765;28;20523;-75
2022/05/17 01:51:20;;;;;;;128.82;116.72;;;16.40;96.00;;;;;;4976528;28;20183;-75
2022/05/17 01:53:47;;;;;;;129.00;116.88;;;16.40;96.10;;;;;;4976710;28;20061;-75
2022/05/17 01:56:15;;;;;;;127.75;115.75;;;16.40;96.10;;;;;;4976814;28;20480;-75
2022/05/17 01:58:42;;;;;;;125.53;113.90;;;16.30;96.10;;;;;;4976128;28;20074;-75
2022/05/17 02:01:11;;;;;;;124.70;113.18;;;16.30;96.10;;;;;;4976298;28;20057;-75
2022/05/17 02:03:38;;;;;;;126.97;115.15;;;16.30;96.10;;;;;;4976220;28;20047;-75
2022/05/17 02:06:06;;;;;;;127.13;114.97;;;16.20;96.10;;;;;;4993664;28;20134;-75
2022/05/17 02:08:33;;;;;;;126.38;114.78;;;16.20;96.10;;;;;;4976138;28;20046;-75
2022/05/17 02:11:00;;;;;;;127.43;115.65;;;16.20;96.10;;;;;;4976406;28;20054;-75
2022/05/17 02:13:28;;;;;;;125.55;113.97;;;16.20;96.10;;;;;;4993397;28;20142;-76
2022/05/17 02:15:55;;;;;;;127.13;115.30;;;16.20;96.20;;;;;;4975959;28;20055;-75
2022/05/17 02:18:22;;;;;;;125.32;113.75;;;16.20;96.20;;;;;;4976086;28;20047;-75
2022/05/17 02:20:49;;;;;;;124.22;112.68;;;16.10;96.20;;;;;;4976542;28;20051;-75
2022/05/17 02:23:16;;;;;;;125.63;113.90;;;16.10;96.20;;;;;;4976406;28;20053;-75
2022/05/17 02:25:43;;;;;;;126.57;114.72;;;16.00;96.20;;;;;;4993553;28;20055;-75
2022/05/17 02:28:11;;;;;;;125.70;114.28;;;16.00;96.20;;;;;;4976189;28;20042;-75
2022/05/17 02:30:41;;;;;;;125.95;114.13;;;16.00;96.30;;;;;;4975997;28;20090;-75
2022/05/17 02:33:08;;;;;;;125.82;113.88;;;16.00;96.30;;;;;;4976490;28;20088;-75
2022/05/17 02:35:36;;;;;;;128.15;115.72;;;15.90;96.30;;;;;;4976307;28;20070;-75
2022/05/17 02:38:03;;;;;;;124.45;112.90;;;15.90;96.40;;;;;;4975835;28;20141;-75
2022/05/17 02:40:30;;;;;;;127.65;115.63;;;15.90;96.40;;;;;;4975843;28;20051;-75
2022/05/17 02:42:57;;;;;;;124.35;112.85;;;15.90;96.50;;;;;;4993789;28;20122;-76
2022/05/17 02:45:24;;;;;;;127.05;115.28;;;15.80;96.50;;;;;;4993475;28;20054;-75
2022/05/17 02:47:53;;;;;;;125.93;113.72;;;15.80;96.60;;;;;;4975404;28;20118;-75
2022/05/17 02:50:20;;;;;;;127.13;115.00;;;15.80;96.60;;;;;;4976153;28;20047;-75
2022/05/17 02:52:47;;;;;;;125.57;114.00;;;15.70;96.60;;;;;;4975527;28;20061;-75
2022/05/17 02:55:15;;;;;;;127.20;115.13;;;15.70;96.70;;;;;;4975767;28;20051;-75
2022/05/17 02:57:42;;;;;;;127.00;114.75;;;15.70;96.70;;;;;;4975497;28;20117;-75
2022/05/17 03:00:12;;;;;;;127.88;115.47;;;15.70;96.70;;;;;;4992931;28;20355;-75
2022/05/17 03:02:39;;;;;;;128.02;115.47;;;15.60;96.70;;;;;;4975767;28;20539;-75
2022/05/17 03:05:09;;;;;;;124.93;113.25;;;15.60;96.80;;;;;;4993251;28;20082;-75
2022/05/17 03:07:36;;;;;;;126.60;114.60;;;15.60;96.80;;;;;;4975189;28;20518;-75
2022/05/17 03:10:03;;;;;;;126.38;114.22;;;15.60;96.80;;;;;;4976693;28;20121;-75
2022/05/17 03:12:30;;;;;;;127.30;115.20;;;15.60;96.80;;;;;;4979072;28;20057;-75
2022/05/17 03:14:59;;;;;;;127.97;115.38;;;15.60;96.90;;;;;;4979241;28;20182;-75
2022/05/17 03:17:27;;;;;;;127.78;115.70;;;15.50;96.90;;;;;;4995747;28;20525;-75
2022/05/17 03:19:54;;;;;;;127.53;115.07;;;15.50;97.10;;;;;;4978715;28;20130;-75
2022/05/17 03:22:23;;;;;;;127.40;115.70;;;15.50;96.90;;;;;;4978885;28;20057;-75
2022/05/17 03:24:51;;;;;;;128.32;116.07;;;15.50;96.90;;;;;;4995959;28;20109;-75
2022/05/17 03:27:19;;;;;;;129.70;117.63;;;15.50;97.00;;;;;;4978787;28;20055;-76
2022/05/17 03:29:52;;;;;;;126.32;114.20;;;15.40;97.00;;;;;;4982047;28;20054;-75
2022/05/17 03:32:21;;;;;;;128.20;116.30;;;15.40;97.00;;;;;;4978254;28;20505;-76
2022/05/17 03:34:48;;;;;;;126.80;114.55;;;15.40;97.00;;;;;;4995843;28;20165;-75
2022/05/17 03:37:15;;;;;;;132.18;118.80;;;15.40;97.10;;;;;;4994564;28;20063;-75
2022/05/17 03:39:43;;;;;;;129.93;117.38;;;15.30;97.10;;;;;;4994869;28;20109;-74
2022/05/17 03:42:11;;;;;;;131.23;118.97;;;15.30;97.10;;;;;;4982839;28;20057;-75
2022/05/17 03:44:38;;;;;;;129.05;116.85;;;15.30;97.10;;;;;;5014159;28;20065;-75
2022/05/17 03:47:07;;;;;;;132.35;120.00;;;15.20;97.20;;;;;;4995108;28;20435;-75
2022/05/17 03:49:34;;;;;;;128.30;116.38;;;15.20;97.20;;;;;;4996433;28;20046;-75
2022/05/17 03:52:01;;;;;;;128.93;116.75;;;15.10;97.20;;;;;;4996306;28;20133;-77
2022/05/17 04:00:59;;;;;;;127.63;115.55;;;15.10;97.30;;;;;;4992906;28;20657;-75
2022/05/17 04:03:25;;;;;;;127.60;115.32;;;15.10;97.40;;;;;;4996599;28;20141;-76
2022/05/17 04:05:52;;;;;;;128.10;116.30;;;15.00;97.40;;;;;;4996372;28;20574;-76
2022/05/17 04:08:19;;;;;;;128.43;116.38;;;15.00;97.40;;;;;;4996324;28;20177;-75
2022/05/17 04:10:46;;;;;;;127.22;115.00;;;15.00;97.50;;;;;;4996970;28;20069;-75
2022/05/17 04:13:14;;;;;;;127.00;114.82;;;15.00;97.60;;;;;;4996947;28;20453;-75
2022/05/17 04:15:42;;;;;;;126.43;114.68;;;15.00;97.60;;;;;;4979005;28;20050;-76
2022/05/17 04:18:11;;;;;;;128.00;115.63;;;15.00;97.70;;;;;;4986558;28;20146;-77
2022/05/17 04:20:38;;;;;;;127.28;115.45;;;15.00;97.80;;;;;;5003580;28;20051;-76
2022/05/17 04:23:05;;;;;;;126.65;114.47;;;15.00;98.00;;;;;;4971038;28;20133;-76
2022/05/17 04:25:32;;;;;;;125.65;113.35;;;15.00;97.90;;;;;;5004515;28;20142;-75
2022/05/17 04:27:59;;;;;;;126.20;114.57;;;15.00;97.90;;;;;;4985379;28;20050;-75
2022/05/17 04:30:26;;;;;;;125.30;113.72;;;15.00;98.00;;;;;;5002983;28;20062;-75
2022/05/17 04:32:53;;;;;;;126.07;114.30;;;15.00;97.90;;;;;;4985828;28;20495;-76
2022/05/17 04:35:21;;;;;;;127.20;115.22;;;15.00;97.90;;;;;;4995859;28;20501;-74
2022/05/17 04:37:48;;;;;;;125.43;113.90;;;15.00;98.10;;;;;;5013760;28;20051;-75
2022/05/17 04:40:15;;;;;;;127.20;115.47;;;15.10;98.10;;;;;;4996194;28;20059;-74
2022/05/17 04:42:44;;;;;;;128.75;116.82;;;15.10;98.10;;;;;;5012886;28;20054;-78
2022/05/17 04:45:14;;;;;;;129.13;116.80;;;15.10;98.30;;;;;;4991306;28;20046;-74
2022/05/17 04:47:42;;;;;;;130.50;118.63;;;15.10;98.20;;;;;;4986965;28;20058;-75
2022/05/17 04:50:11;;;;;;;127.28;115.40;;;15.10;98.20;;;;;;5004383;28;20064;-75
2022/05/17 04:52:39;;;;;;;127.85;115.82;;;15.20;98.20;;;;;;5004848;28;20054;-75
2022/05/17 04:55:08;;;;;;;129.00;116.80;;;15.20;98.20;;;;;;4991463;28;20050;-76
2022/05/17 04:57:37;;;;;;;130.20;118.03;;;15.20;98.20;;;;;;4998781;28;20125;-75
2022/05/17 05:00:07;;;;;;;125.13;113.38;;;15.20;98.20;;;;;;5010978;28;20456;-76
2022/05/17 05:02:35;;;;;;;126.40;114.50;;;15.20;98.20;;;;;;4993763;28;20058;-75
2022/05/17 05:05:02;;;;;;;124.38;113.03;;;15.30;98.20;;;;;;5013155;28;20460;-74
2022/05/17 05:07:29;;;;;;;125.82;113.93;;;15.30;98.20;;;;;;4994809;28;20053;-75
2022/05/17 05:09:57;;;;;;;124.80;112.78;;;15.30;98.30;;;;;;4995470;28;20130;-75
2022/05/17 05:12:24;;;;;;;128.13;116.43;;;15.30;98.30;;;;;;4989934;28;20046;-75
2022/05/17 05:14:51;;;;;;;125.25;113.75;;;15.30;98.30;;;;;;4978729;28;20137;-75
2022/05/17 05:17:19;;;;;;;138.00;125.75;;;15.40;98.30;;;;;;4976768;28;20061;-75
2022/05/17 05:19:46;;;;;;;129.40;117.40;;;15.40;98.30;;;;;;5012481;28;20560;-75
2022/05/17 05:22:13;;;;;;;127.38;115.65;;;15.40;98.30;;;;;;5010005;28;20050;-75
2022/05/17 05:24:39;;;;;;;130.35;117.85;;;15.40;98.40;;;;;;4993120;28;20435;-75
2022/05/17 05:27:08;;;;;;;128.55;117.13;;;15.50;98.40;;;;;;4994385;28;20073;-75
2022/05/17 05:29:35;;;;;;;126.00;114.53;;;15.50;98.40;;;;;;5010960;28;20054;-75
2022/05/17 05:32:02;;;;;;;124.63;113.15;;;15.60;98.40;;;;;;4994168;28;20050;-76
2022/05/17 05:34:29;;;;;;;128.60;116.75;;;15.60;98.50;;;;;;4994450;28;20137;-75
2022/05/17 05:36:56;;;;;;;126.35;114.75;;;15.60;98.40;;;;;;4977539;28;20652;-75
2022/05/17 05:39:23;;;;;;;127.30;115.53;;;15.60;98.50;;;;;;5007700;28;20051;-75
2022/05/17 05:41:52;;;;;;;133.23;121.03;;;15.70;98.50;;;;;;5001728;28;20133;-75
2022/05/17 05:44:21;;;;;;;124.25;113.07;;;15.70;98.50;;;;;;4987721;28;20055;-75
2022/05/17 05:46:48;;;;;;;122.35;110.85;;;15.70;98.40;;;;;;5001323;28;20043;-77
2022/05/17 05:49:15;;;;;;;124.32;113.03;;;15.80;98.40;;;;;;5001919;28;20582;-75
2022/05/17 05:51:42;;;;;;;121.90;110.65;;;15.80;98.30;;;;;;5006365;28;20070;-76
2022/05/17 05:54:09;;;;;;;124.28;112.55;;;15.90;98.40;;;;;;5006394;28;20085;-76
2022/05/17 05:56:38;;;;;;;123.88;112.57;;;15.90;98.30;;;;;;4987092;28;20077;-75
2022/05/17 05:59:05;;;;;;;123.22;111.63;;;16.00;98.30;;;;;;5011808;28;20054;-75
2022/05/17 06:01:33;;;;;;;121.53;110.38;;;16.00;98.20;;;;;;5012188;28;20136;-76
2022/05/17 06:04:01;;;;;;;123.10;111.53;;;16.10;98.20;;;;;;4994519;28;20050;-76
2022/05/17 06:06:28;;;;;;;122.45;111.25;;;16.10;98.10;;;;;;4994220;28;20150;-76
2022/05/17 06:08:55;;;;;;;122.15;110.85;;;16.10;98.00;;;;;;4977376;28;20129;-76
2022/05/17 06:11:22;;;;;;;122.75;111.38;;;16.20;98.10;;;;;;4994419;28;20352;-75
2022/05/17 06:13:49;;;;;;;123.93;112.47;;;16.20;98.10;;;;;;4993987;28;20073;-74
2022/05/17 06:16:17;;;;;;;124.05;112.70;;;16.20;98.00;;;;;;4994276;28;20060;-75
2022/05/17 06:18:46;;;;;;;125.13;113.57;;;16.30;98.10;;;;;;5011807;28;20054;-75
2022/05/17 06:21:12;;;;;;;125.18;113.88;;;16.30;98.00;;;;;;5008919;28;20142;-75
2022/05/17 06:23:39;;;;;;;126.35;114.68;;;16.40;98.00;;;;;;4977622;28;20050;-76
2022/05/17 06:26:06;;;;;;;124.85;113.53;;;16.40;97.90;;;;;;4986328;28;20074;-76
2022/05/17 06:28:34;;;;;;;124.88;113.60;;;16.50;97.90;;;;;;4985760;28;20058;-76
2022/05/17 06:31:01;;;;;;;124.55;112.70;;;16.50;97.70;;;;;;5005627;28;20058;-76
2022/05/17 06:33:29;;;;;;;126.43;115.30;;;16.60;97.50;;;;;;4991502;28;20145;-76
2022/05/17 06:35:57;;;;;;;128.57;117.10;;;16.60;97.60;;;;;;4964917;28;20409;-76
2022/05/17 06:38:24;;;;;;;126.15;114.28;;;16.60;97.70;;;;;;5003698;28;20074;-76
2022/05/17 06:40:51;;;;;;;126.25;115.15;;;16.60;97.70;;;;;;5003410;28;20483;-75
2022/05/17 06:43:18;;;;;;;125.70;114.20;;;16.70;97.60;;;;;;5005022;28;20062;-77
2022/05/17 06:45:45;;;;;;;125.22;113.47;;;16.70;97.50;;;;;;4993441;28;20152;-76
2022/05/17 06:48:12;;;;;;;131.40;119.25;;;16.70;97.60;;;;;;4976654;28;20046;-77
2022/05/17 06:50:39;;;;;;;128.38;116.53;;;16.70;97.60;;;;;;5008673;28;20109;-77
2022/05/17 06:53:08;;;;;;;125.40;113.78;;;16.80;97.70;;;;;;4995069;28;20142;-76
2022/05/17 06:55:37;;;;;;;128.77;116.80;;;16.80;97.60;;;;;;4987627;28;20150;-76
2022/05/17 06:58:04;;;;;;;126.60;115.10;;;16.80;97.60;;;;;;4972009;28;20046;-76
2022/05/17 07:00:32;;;;;;;125.78;114.40;;;16.90;97.50;;;;;;4986215;28;20620;-76
2022/05/17 07:03:00;;;;;;;125.40;113.70;;;16.90;97.40;;;;;;4992280;28;20065;-76
2022/05/17 07:05:27;;;;;;;125.95;114.25;;;16.90;97.30;;;;;;5004632;28;20133;-76
2022/05/17 07:07:54;;;;;;;126.20;114.30;;;16.90;97.40;;;;;;4988227;28;20055;-77
2022/05/17 07:13:12;;;;;;;124.93;113.45;;;17.00;97.30;;;;;;4994481;28;20056;-76
2022/05/17 07:15:41;;;;;;;125.25;113.85;;;17.10;96.90;;;;;;5013454;28;20054;-76
2022/05/17 07:18:11;;;;;;;127.65;115.82;;;17.10;96.80;;;;;;4997241;28;20098;-76
2022/05/17 07:20:38;;;;;;;126.93;115.47;;;17.10;97.00;;;;;;5013482;28;20401;-76
2022/05/17 07:23:06;;;;;;;132.25;120.55;;;17.10;97.00;;;;;;4997595;28;20051;-76
2022/05/17 07:25:35;;;;;;;128.88;117.10;;;17.10;96.90;;;;;;4997254;28;20483;-77
2022/05/17 07:28:03;;;;;;;128.02;116.32;;;17.20;96.90;;;;;;5013484;28;20536;-77
2022/05/17 07:30:30;;;;;;;128.02;116.32;;;17.20;97.00;;;;;;5015126;28;20076;-77
2022/05/17 07:32:57;;;;;;;129.13;117.45;;;17.30;96.90;;;;;;4980742;28;20054;-77
2022/05/17 07:35:27;;;;;;;126.97;115.57;;;17.30;97.00;;;;;;4996348;28;20061;-77
2022/05/17 07:37:54;;;;;;;130.82;118.95;;;17.30;96.90;;;;;;4979502;28;20074;-78
2022/05/17 07:40:22;;;;;;;127.78;116.40;;;17.40;96.80;;;;;;4994564;28;20142;-77
2022/05/17 07:42:52;;;;;;;128.88;117.10;;;17.40;96.80;;;;;;4994861;28;20055;-77
2022/05/17 07:45:19;;;;;;;128.93;117.03;;;17.50;96.80;;;;;;4993052;28;20145;-76
2022/05/17 07:47:46;;;;;;;133.13;121.10;;;17.50;96.80;;;;;;4992070;28;20122;-75
2022/05/17 07:50:13;;;;;;;129.25;117.57;;;17.50;96.80;;;;;;4986777;28;20050;-76
2022/05/17 07:52:41;;;;;;;129.60;118.07;;;17.60;96.70;;;;;;5012283;28;20141;-76
2022/05/17 07:55:10;;;;;;;130.30;118.57;;;17.60;96.50;;;;;;5011269;28;20157;-76
2022/05/17 07:57:37;;;;;;;127.03;115.97;;;17.70;96.30;;;;;;5004807;28;20134;-76
2022/05/17 08:00:07;;;;;;;126.93;115.72;;;17.80;96.30;;;;;;5002224;28;20129;-76
2022/05/17 08:02:38;;;;;;;128.80;117.10;;;17.80;96.20;;;;;;4998518;28;20066;-76
2022/05/17 08:05:06;;;;;;;128.98;117.65;;;17.80;96.10;;;;;;4977444;28;20446;-76
2022/05/17 08:07:33;;;;;;;128.68;117.35;;;17.90;96.00;;;;;;4981391;28;20066;-76
2022/05/17 08:10:00;;;;;;;129.73;118.30;;;18.00;95.80;;;;;;4983325;28;20047;-76
2022/05/17 08:12:27;;;;;;;128.35;117.03;;;18.00;95.70;;;;;;4977256;28;20051;-75
2022/05/17 08:14:54;;;;;;;128.52;117.05;;;18.10;95.80;;;;;;4994854;28;20047;-76
2022/05/17 08:17:23;;;;;;;130.30;118.57;;;18.20;95.40;;;;;;4993166;28;20086;-79
2022/05/17 08:19:50;;;;;;;127.63;116.18;;;18.20;95.40;;;;;;5012094;28;20133;-79
2022/05/17 08:22:17;;;;;;;127.80;116.55;;;18.30;95.30;;;;;;4995398;28;20055;-78
2022/05/17 08:27:37;;;;;;;131.80;120.13;;;18.40;95.00;;;;;;4985738;28;20062;-77
2022/05/17 08:30:09;;;;;;;128.88;117.72;;;18.40;95.00;;;;;;4979891;28;20042;-76
2022/05/17 08:35:28;;;;;;;127.05;115.75;;;18.50;94.80;;;;;;5005298;28;20089;-77
2022/05/17 08:37:55;;;;;;;127.30;116.22;;;18.60;94.70;;;;;;4996229;28;20145;-77
2022/05/17 08:40:24;;;;;;;127.85;116.85;;;18.70;94.10;;;;;;4980482;28;20337;-77
2022/05/17 08:43:06;;;;;;;127.78;116.63;;;18.70;93.80;;;;;;4995439;28;20141;-77
2022/05/17 08:45:40;;;;;;;125.45;114.57;;;18.80;93.70;;;;;;4995756;28;20221;-77
2022/05/17 08:48:16;;;;;;;129.73;118.72;;;18.80;93.70;;;;;;5013089;28;20055;-78
2022/05/17 08:50:48;;;;;;;130.82;119.95;;;18.90;93.30;;;;;;4980007;28;20050;-77
2022/05/17 08:53:18;;;;;;;128.93;118.32;;;18.90;92.90;;;;;;5013255;28;20588;-78
2022/05/17 08:55:49;;;;;;;131.18;120.35;;;19.00;92.60;;;;;;4990017;28;20425;-76
2022/05/17 08:58:22;;;;;;;130.23;119.28;;;19.10;92.30;;;;;;4985623;28;20057;-72
2022/05/17 09:00:54;;;;;;;130.05;118.88;;;19.10;91.90;;;;;;4987953;28;20128;-74
2022/05/17 09:03:40;;;;;;;127.07;116.65;;;19.20;91.30;;;;;;4987677;28;20046;-73
2022/05/17 09:06:12;;;;;;;126.88;116.13;;;19.30;90.20;;;;;;4999572;28;20055;-72
2022/05/17 09:08:48;;;;;;;128.60;117.78;;;19.30;89.20;;;;;;4992904;28;20053;-73
2022/05/17 09:11:22;;;;;;;126.03;115.47;;;19.40;88.70;;;;;;5013436;28;20502;-73
2022/05/17 09:13:54;;;;;;;126.25;115.63;;;19.40;87.90;;;;;;4996150;28;20054;-73
2022/05/17 09:16:24;;;;;;;128.00;117.55;;;19.60;87.50;;;;;;4987858;28;20047;-73
2022/05/17 09:18:52;;;;;;;126.15;115.53;;;19.60;87.60;;;;;;5002062;28;20459;-73
2022/05/17 09:21:28;;;;;;;127.38;117.05;;;19.70;87.70;;;;;;4988592;28;20133;-73
2022/05/17 09:23:58;;;;;;;127.95;117.43;;;19.70;85.50;;;;;;5004875;28;20055;-73
2022/05/17 09:26:26;;;;;;;127.30;116.90;;;19.80;83.90;;;;;;5003217;28;20053;-73
2022/05/17 09:28:58;;;;;;;130.40;119.85;;;19.80;83.70;;;;;;4981067;28;20097;-73
2022/05/17 09:31:32;;;;;;;130.15;119.50;;;19.90;82.20;;;;;;4994588;28;20133;-73
2022/05/17 09:34:03;;;;;;;130.43;119.57;;;20.00;81.00;;;;;;4995055;28;20054;-73
2022/05/17 09:36:41;;;;;;;137.15;126.28;;;20.10;80.70;;;;;;4995225;28;20149;-73
2022/05/17 09:39:08;;;;;;;128.40;118.05;;;20.10;79.90;;;;;;4994641;28;20133;-73
2022/05/17 09:41:39;;;;;;;134.00;123.57;;;20.20;80.60;;;;;;5012265;28;20050;-73
2022/05/17 09:44:11;;;;;;;131.05;120.80;;;20.20;79.00;;;;;;4994750;28;20472;-73
2022/05/17 09:46:44;;;;;;;131.60;121.03;;;20.30;78.40;;;;;;4994650;28;20086;-73
2022/05/17 09:55:05;;;;;;;127.35;116.82;;;20.50;76.40;;;;;;5012242;28;20550;-72
2022/05/17 09:57:32;;;;;;;125.22;114.97;;;20.50;75.70;;;;;;4974780;28;20219;-72
2022/05/17 10:00:12;;;;;;;128.23;118.20;;;20.60;75.90;;;;;;4975572;28;20483;-72
2022/05/17 10:02:49;;;;;;;132.43;121.65;;;20.60;75.50;;;;;;4978099;28;20042;-73
2022/05/17 10:05:24;;;;;;;127.18;116.85;;;20.60;74.60;;;;;;4994429;28;20054;-72
2022/05/17 10:07:57;;;;;;;126.85;116.55;;;20.70;74.10;;;;;;5010170;28;20061;-72
2022/05/17 10:10:35;;;;;;;129.07;118.45;;;20.70;73.80;;;;;;4994010;28;20058;-73
2022/05/17 10:13:18;;;;;;;129.80;119.30;;;20.70;72.40;;;;;;4992801;28;20078;-72
2022/05/17 10:15:49;;;;;;;127.00;116.40;;;20.80;72.90;;;;;;4974012;28;20050;-72
2022/05/17 10:18:35;;;;;;;128.82;118.57;;;20.80;72.90;;;;;;4983136;28;20057;-72
2022/05/17 10:21:10;;;;;;;127.80;117.55;;;20.90;70.70;;;;;;4994236;28;20042;-73
2022/05/17 10:23:44;;;;;;;129.02;118.70;;;20.90;69.70;;;;;;5012010;28;20042;-73
2022/05/17 10:26:14;;;;;;;127.75;117.25;;;20.90;69.30;;;;;;5010605;28;20057;-72
2022/05/17 10:28:46;;;;;;;128.35;118.15;;;20.90;69.90;;;;;;4993271;28;20050;-73
2022/05/17 10:31:21;;;;;;;128.05;117.88;;;20.90;70.30;;;;;;4993738;28;20046;-72
2022/05/17 10:34:04;;;;;;;124.57;114.40;;;20.90;69.50;;;;;;4993542;28;20578;-72
2022/05/17 10:36:41;;;;;;;123.78;113.68;;;21.00;69.60;;;;;;4977292;28;20521;-72
2022/05/17 10:39:21;;;;;;;125.20;115.15;;;21.00;69.80;;;;;;4993219;28;20056;-73
2022/05/17 10:41:49;;;;;;;128.32;118.22;;;21.00;69.20;;;;;;5010969;28;20047;-73
2022/05/17 10:44:19;;;;;;;130.07;120.10;;;21.00;69.70;;;;;;4994439;28;20053;-72
2022/05/17 10:46:52;;;;;;;127.85;117.85;;;21.00;68.70;;;;;;4994730;28;20145;-72
2022/05/17 10:49:27;;;;;;;127.20;117.20;;;21.00;67.50;;;;;;5012075;28;20099;-73
2022/05/17 10:52:07;;;;;;;129.27;119.13;;;21.10;66.20;;;;;;4993669;28;21456;-73
2022/05/17 10:54:48;;;;;;;131.88;121.68;;;21.10;66.70;;;;;;4993506;28;20058;-72
2022/05/17 10:57:26;;;;;;;132.13;122.13;;;21.10;68.10;;;;;;5010602;28;20904;-72
2022/05/17 11:00:01;;;;;;;132.80;122.90;;;21.20;68.50;;;;;;4994108;28;20423;-72
2022/05/17 11:02:55;;;;;;;134.07;123.38;;;21.20;68.70;;;;;;5011518;28;20054;-73
2022/05/17 11:05:30;;;;;;;134.93;123.97;;;21.30;71.90;;;;;;5011920;28;20130;-72
2022/05/17 11:08:07;;;;;;;133.70;123.22;;;21.40;73.30;;;;;;5011560;28;20108;-71
2022/05/17 11:10:45;;;;;;;129.45;119.07;;;21.50;73.40;;;;;;4993953;28;20050;-71
2022/05/17 11:13:36;;;;;;;131.90;121.43;;;21.60;72.60;;;;;;4994229;28;20495;-71
2022/05/17 11:16:09;;;;;;;132.45;121.93;;;21.60;71.60;;;;;;5009821;28;20050;-71
2022/05/17 11:18:42;;;;;;;131.88;120.80;;;21.70;73.30;;;;;;5011363;28;20124;-71
2022/05/17 11:21:17;;;;;;;134.25;123.53;;;21.70;74.00;;;;;;4991608;28;20133;-71
2022/05/17 11:23:50;;;;;;;135.50;124.75;;;21.70;73.70;;;;;;5010810;28;20539;-71
2022/05/17 11:26:58;;;;;;;133.85;123.57;;;21.70;74.10;;;;;;4993699;28;20133;-71
2022/05/17 11:30:00;;;;;;;131.77;121.43;;;21.80;75.10;;;;;;5010881;28;20409;-71
2022/05/17 11:32:30;;;;;;;130.45;120.18;;;21.90;73.70;;;;;;5014228;28;20109;-71
2022/05/17 11:34:58;;;;;;;133.13;122.82;;;21.90;72.20;;;;;;4996925;28;20854;-71
2022/05/17 11:37:59;;;;;;;134.20;123.82;;;21.90;72.30;;;;;;4996311;28;20483;-71
2022/05/17 11:40:54;;;;;;;131.70;121.78;;;22.00;73.30;;;;;;4988109;28;20141;-71
2022/05/17 11:43:43;;;;;;;135.35;124.88;;;22.00;72.50;;;;;;4996066;28;21444;-71
2022/05/17 11:46:55;;;;;;;133.18;122.57;;;22.10;71.90;;;;;;5005452;28;20124;-71
2022/05/17 11:49:47;;;;;;;132.13;121.67;;;22.10;72.20;;;;;;4988042;28;20492;-71
2022/05/17 11:52:30;;;;;;;134.25;124.25;;;22.20;72.80;;;;;;4999041;28;20765;-73
2022/05/17 11:55:02;;;;;;;134.15;123.95;;;22.30;72.00;;;;;;5001686;28;20055;-72
2022/05/17 11:58:05;;;;;;;132.55;122.18;;;22.40;71.80;;;;;;4996383;28;20149;-72
2022/05/17 12:00:49;;;;;;;132.45;122.30;;;22.40;71.70;;;;;;5013441;28;20569;-72
2022/05/17 12:03:41;;;;;;;133.05;122.85;;;22.50;70.10;;;;;;5014872;28;20054;-77
2022/05/17 12:06:11;;;;;;;132.38;122.15;;;22.50;71.10;;;;;;4996317;28;20053;-79
2022/05/17 12:08:40;;;;;;;132.02;121.97;;;22.50;70.10;;;;;;4996531;28;20050;-77
2022/05/17 12:11:21;;;;;;;134.23;123.93;;;22.50;70.70;;;;;;4996459;28;20050;-78
2022/05/17 12:13:54;;;;;;;133.13;123.32;;;22.60;71.00;;;;;;4997192;28;20046;-78
2022/05/17 12:16:24;;;;;;;135.73;125.22;;;22.70;70.50;;;;;;4996382;28;20057;-78
2022/05/17 12:18:55;;;;;;;131.35;121.35;;;22.70;70.00;;;;;;5013726;28;20062;-79
2022/05/17 12:21:35;;;;;;;134.40;124.30;;;22.70;70.40;;;;;;5014028;28;20112;-78
2022/05/17 12:24:10;;;;;;;135.65;125.13;;;22.70;71.10;;;;;;5013841;28;20129;-78
2022/05/17 12:26:52;;;;;;;133.93;123.47;;;22.70;70.90;;;;;;4996323;28;20185;-78
2022/05/17 12:32:23;;;;;;;141.48;130.70;;;22.80;72.30;;;;;;4925552;28;20067;-77
2022/05/17 12:34:53;;;;;;;138.70;128.10;;;22.90;72.00;;;;;;4924670;28;20139;-77
2022/05/17 12:37:25;;;;;;;137.93;127.72;;;22.90;73.00;;;;;;4935980;28;20607;-77
2022/05/17 12:45:28;;;;;;;139.93;129.43;;;23.10;73.20;;;;;;4985405;28;20061;-75
2022/05/17 12:47:57;;;;;;;139.00;128.35;;;23.20;73.20;;;;;;5004249;28;20130;-75
2022/05/17 12:50:29;;;;;;;137.20;126.75;;;23.20;72.70;;;;;;5007852;28;20137;-76
2022/05/17 12:52:58;;;;;;;134.80;124.82;;;23.30;72.40;;;;;;5013835;28;20392;-77
2022/05/17 12:55:30;;;;;;;138.75;128.50;;;23.30;72.70;;;;;;5013771;28;20056;-76
2022/05/17 12:58:08;;;;;;;136.23;125.90;;;23.40;71.60;;;;;;5013410;28;20055;-76
2022/05/17 13:00:36;;;;;;;135.68;125.28;;;23.50;72.20;;;;;;5011655;28;20043;-77